createdAt,value
2022-08-20T00:02:27.669Z,18.31
2022-08-20T00:04:56.167Z,18.40
2022-08-20T00:07:24.658Z,18.32
2022-08-20T00:09:54.624Z,18.27
2022-08-20T00:12:23.120Z,18.27
2022-08-20T00:14:51.603Z,18.28
2022-08-20T00:17:20.120Z,18.23
2022-08-20T00:19:48.719Z,18.27
2022-08-20T00:22:17.266Z,18.17
2022-08-20T00:24:45.738Z,18.15
2022-08-20T00:27:15.567Z,18.06
2022-08-20T00:29:44.004Z,18.08
2022-08-20T00:32:12.485Z,18.05
2022-08-20T00:34:42.295Z,18.03
2022-08-20T00:37:10.971Z,18.03
2022-08-20T00:39:39.514Z,17.95
2022-08-20T00:42:09.527Z,17.95
2022-08-20T00:44:47.400Z,17.98
2022-08-20T00:47:15.885Z,17.99
2022-08-20T00:49:45.484Z,18.06
2022-08-20T00:52:20.788Z,17.96
2022-08-20T00:54:56.301Z,17.89
2022-08-20T00:57:59.111Z,17.81
2022-08-20T01:00:30.956Z,17.84
2022-08-20T01:03:00.737Z,17.84
2022-08-20T01:05:30.072Z,17.84
2022-08-20T01:07:59.537Z,17.78
2022-08-20T01:10:35.722Z,17.84
2022-08-20T01:13:11.004Z,17.92
2022-08-20T01:15:46.616Z,17.85
2022-08-20T01:18:24.469Z,17.95
2022-08-20T01:20:58.679Z,17.90
2022-08-20T01:23:53.057Z,17.96
2022-08-20T01:26:28.083Z,17.93
2022-08-20T01:29:03.431Z,17.89
2022-08-20T01:31:35.441Z,17.89
2022-08-20T01:34:10.201Z,17.82
2022-08-20T01:36:46.282Z,17.79
2022-08-20T01:39:18.667Z,17.78
2022-08-20T01:42:04.590Z,17.80
2022-08-20T01:44:34.288Z,17.79
2022-08-20T01:47:15.158Z,17.78
2022-08-20T01:49:51.377Z,17.75
2022-08-20T01:52:32.190Z,17.78
2022-08-20T01:55:00.834Z,17.86
2022-08-20T01:57:30.770Z,17.81
2022-08-20T01:59:59.204Z,17.73
2022-08-20T02:02:28.117Z,17.73
2022-08-20T02:04:58.654Z,17.73
2022-08-20T02:07:27.173Z,17.64
2022-08-20T02:09:55.697Z,17.80
2022-08-20T02:12:24.117Z,17.82
2022-08-20T02:14:56.917Z,17.91
2022-08-20T02:17:28.096Z,18.06
2022-08-20T02:20:01.598Z,18.03
2022-08-20T02:22:40.664Z,17.94
2022-08-20T02:25:16.190Z,17.98
2022-08-20T02:27:48.657Z,18.00
2022-08-20T02:30:27.922Z,18.01
2022-08-20T02:32:57.250Z,18.10
2022-08-20T02:35:27.721Z,18.16
2022-08-20T02:37:56.837Z,18.13
2022-08-20T02:40:30.842Z,18.10
2022-08-20T02:43:00.856Z,18.03
2022-08-20T02:45:36.049Z,18.08
2022-08-20T02:48:06.197Z,18.09
2022-08-20T02:50:34.764Z,18.13
2022-08-20T02:53:03.217Z,18.22
2022-08-20T02:55:31.679Z,18.33
2022-08-20T02:58:01.654Z,18.30
2022-08-20T03:00:37.920Z,18.29
2022-08-20T03:03:08.713Z,18.31
2022-08-20T03:05:39.177Z,18.20
2022-08-20T03:08:10.677Z,18.22
2022-08-20T03:10:42.142Z,18.32
2022-08-20T03:13:12.533Z,18.30
2022-08-20T03:15:46.548Z,18.28
2022-08-20T03:18:15.684Z,18.31
2022-08-20T03:20:45.960Z,18.29
2022-08-20T03:23:19.186Z,18.34
2022-08-20T03:25:48.535Z,18.28
2022-08-20T03:28:18.396Z,18.25
2022-08-20T03:30:48.850Z,18.22
2022-08-20T03:33:17.665Z,18.19
2022-08-20T03:35:46.181Z,18.20
2022-08-20T03:38:17.789Z,18.24
2022-08-20T03:40:51.347Z,18.26
2022-08-20T03:43:20.548Z,18.22
2022-08-20T03:45:50.732Z,18.24
2022-08-20T03:48:22.011Z,18.26
2022-08-20T03:50:52.960Z,18.25
2022-08-20T03:53:21.421Z,18.28
2022-08-20T03:55:56.454Z,18.32
2022-08-20T03:58:31.609Z,18.28
2022-08-20T04:01:45.257Z,18.17
2022-08-20T04:03:58.601Z,18.21
2022-08-20T04:06:27.748Z,18.20
2022-08-20T04:08:56.312Z,18.29
2022-08-20T04:11:24.851Z,18.27
2022-08-20T04:13:53.365Z,18.30
2022-08-20T04:16:24.413Z,18.32
2022-08-20T04:18:58.580Z,18.36
2022-08-20T04:21:32.849Z,18.29
2022-08-20T04:24:03.305Z,18.27
2022-08-20T04:26:32.432Z,18.29
2022-08-20T04:29:00.923Z,18.26
2022-08-20T04:31:33.359Z,18.24
2022-08-20T04:34:03.131Z,18.21
2022-08-20T04:36:32.076Z,18.24
2022-08-20T04:39:00.563Z,18.25
2022-08-20T04:41:29.202Z,18.30
2022-08-20T04:43:59.062Z,18.36
2022-08-20T04:46:32.600Z,18.39
2022-08-20T04:49:03.320Z,18.35
2022-08-20T04:51:32.653Z,18.38
2022-08-20T04:54:02.559Z,18.44
2022-08-20T04:56:38.603Z,18.43
2022-08-20T04:59:08.235Z,18.43
2022-08-20T05:01:38.190Z,18.49
2022-08-20T05:04:06.690Z,18.55
2022-08-20T05:06:35.206Z,18.56
2022-08-20T05:09:03.956Z,18.71
2022-08-20T05:11:35.629Z,18.71
2022-08-20T05:14:09.016Z,18.77
2022-08-20T05:16:41.210Z,18.83
2022-08-20T05:19:13.009Z,18.81
2022-08-20T05:21:41.944Z,18.88
2022-08-20T05:24:12.117Z,18.91
2022-08-20T05:26:41.244Z,18.92
2022-08-20T05:29:09.748Z,18.87
2022-08-20T05:31:39.698Z,18.99
2022-08-20T05:34:12.082Z,18.94
2022-08-20T05:36:44.699Z,19.03
2022-08-20T05:39:14.338Z,19.12
2022-08-20T05:41:42.962Z,19.23
2022-08-20T05:44:13.979Z,19.16
2022-08-20T05:46:45.926Z,19.27
2022-08-20T05:49:19.485Z,19.33
2022-08-20T05:51:48.692Z,19.53
2022-08-20T05:54:17.172Z,19.64
2022-08-20T05:56:45.664Z,19.76
2022-08-20T05:59:14.280Z,19.87
2022-08-20T06:01:45.045Z,20.04
2022-08-20T06:04:24.754Z,20.11
2022-08-20T06:06:56.008Z,20.16
2022-08-20T06:09:30.936Z,20.19
2022-08-20T06:12:02.597Z,20.24
2022-08-20T06:14:32.326Z,20.34
2022-08-20T06:17:07.609Z,20.39
2022-08-20T06:19:38.458Z,20.32
2022-08-20T06:22:18.151Z,20.33
2022-08-20T06:24:54.113Z,20.34
2022-08-20T06:27:23.727Z,20.33
2022-08-20T06:29:53.336Z,20.33
2022-08-20T06:32:32.441Z,20.33
2022-08-20T06:35:03.124Z,20.33
2022-08-20T06:37:32.846Z,20.25
2022-08-20T06:40:06.080Z,20.25
2022-08-20T06:42:34.889Z,20.34
2022-08-20T06:45:05.796Z,20.41
2022-08-20T06:47:36.031Z,20.36
2022-08-20T06:50:08.081Z,20.40
2022-08-20T06:52:51.541Z,20.23
2022-08-20T06:55:22.914Z,20.35
2022-08-20T06:57:59.887Z,20.23
2022-08-20T07:00:31.437Z,20.34
2022-08-20T07:03:02.353Z,20.37
2022-08-20T07:05:32.613Z,20.49
2022-08-20T07:08:01.391Z,20.67
2022-08-20T07:10:31.485Z,20.74
2022-08-20T07:13:00.418Z,20.75
2022-08-20T07:15:28.959Z,20.76
2022-08-20T07:18:03.587Z,20.81
2022-08-20T07:20:35.547Z,20.98
2022-08-20T07:23:04.526Z,20.92
2022-08-20T07:25:34.869Z,21.06
2022-08-20T07:28:05.884Z,21.16
2022-08-20T07:30:56.989Z,20.87
2022-08-20T07:33:30.518Z,20.87
2022-08-20T07:36:00.322Z,20.84
2022-08-20T07:38:30.538Z,20.83
2022-08-20T07:41:04.765Z,20.86
2022-08-20T07:43:34.602Z,20.89
2022-08-20T07:46:09.184Z,20.99
2022-08-20T07:48:42.179Z,20.99
2022-08-20T07:51:11.805Z,20.82
2022-08-20T07:53:41.989Z,20.82
2022-08-20T07:56:14.628Z,20.78
2022-08-20T07:58:50.016Z,20.91
2022-08-20T08:01:21.122Z,20.94
2022-08-20T08:03:51.033Z,21.00
2022-08-20T08:06:29.469Z,21.07
2022-08-20T08:09:04.338Z,20.99
2022-08-20T08:11:35.847Z,20.97
2022-08-20T08:14:08.100Z,20.91
2022-08-20T08:16:38.504Z,21.04
2022-08-20T08:19:14.323Z,21.01
2022-08-20T08:21:44.175Z,21.05
2022-08-20T08:24:19.708Z,21.07
2022-08-20T08:26:50.695Z,20.87
2022-08-20T08:29:19.319Z,21.09
2022-08-20T08:31:47.923Z,21.21
2022-08-20T08:34:17.929Z,21.29
2022-08-20T08:36:47.585Z,21.45
2022-08-20T08:39:16.454Z,21.54
2022-08-20T08:41:49.541Z,21.61
2022-08-20T08:44:23.977Z,21.54
2022-08-20T08:46:57.542Z,21.56
2022-08-20T08:49:37.261Z,21.72
2022-08-20T08:52:14.645Z,21.86
2022-08-20T08:54:50.071Z,21.94
2022-08-20T08:57:19.104Z,22.08
2022-08-20T09:00:04.483Z,22.17
2022-08-20T09:02:36.518Z,22.00
2022-08-20T09:05:17.722Z,22.04
2022-08-20T09:07:53.287Z,21.95
2022-08-20T09:10:23.490Z,22.01
2022-08-20T09:12:52.345Z,22.02
2022-08-20T09:15:22.222Z,21.88
2022-08-20T09:17:51.254Z,21.83
2022-08-20T09:20:25.952Z,21.78
2022-08-20T09:22:56.509Z,21.72
2022-08-20T09:25:25.670Z,21.69
2022-08-20T09:27:54.142Z,21.66
2022-08-20T09:30:23.402Z,21.60
2022-08-20T09:32:51.993Z,21.62
2022-08-20T09:35:22.028Z,21.56
2022-08-20T09:37:52.193Z,21.58
2022-08-20T09:40:22.052Z,21.48
2022-08-20T09:42:51.786Z,21.33
2022-08-20T09:45:21.167Z,21.33
2022-08-20T09:47:56.595Z,21.22
2022-08-20T09:50:29.218Z,21.21
2022-08-20T09:53:02.069Z,21.19
2022-08-20T09:55:36.906Z,21.09
2022-08-20T09:58:14.830Z,21.16
2022-08-20T10:00:43.305Z,21.17
2022-08-20T10:03:11.821Z,21.09
2022-08-20T10:05:41.661Z,20.97
2022-08-20T10:08:12.861Z,20.97
2022-08-20T10:10:41.577Z,20.98
2022-08-20T10:13:13.312Z,20.94
2022-08-20T10:15:44.415Z,20.83
2022-08-20T10:18:12.984Z,20.86
2022-08-20T10:20:43.662Z,20.87
2022-08-20T10:23:12.849Z,20.79
2022-08-20T10:25:42.543Z,20.87
2022-08-20T10:28:11.176Z,20.93
2022-08-20T10:30:40.170Z,20.83
2022-08-20T10:33:08.644Z,20.91
2022-08-20T10:35:39.251Z,20.87
2022-08-20T10:38:09.065Z,20.93
2022-08-20T10:40:37.718Z,20.92
2022-08-20T10:43:06.143Z,20.74
2022-08-20T10:45:34.634Z,20.85
2022-08-20T10:48:07.551Z,20.86
2022-08-20T10:50:38.140Z,20.86
2022-08-20T10:53:07.962Z,20.95
2022-08-20T10:55:36.373Z,21.04
2022-08-20T10:58:07.230Z,21.10
2022-08-20T11:00:40.313Z,21.11
2022-08-20T11:03:09.042Z,21.19
2022-08-20T11:05:37.629Z,21.20
2022-08-20T11:08:08.408Z,21.23
2022-08-20T11:10:38.422Z,21.45
2022-08-20T11:13:12.086Z,21.49
2022-08-20T11:15:43.466Z,21.44
2022-08-20T11:18:13.381Z,21.32
2022-08-20T11:20:42.373Z,21.49
2022-08-20T11:23:12.114Z,21.62
2022-08-20T11:25:40.585Z,21.76
2022-08-20T11:28:09.096Z,21.79
2022-08-20T11:30:38.873Z,21.92
2022-08-20T11:33:08.226Z,21.85
2022-08-20T11:35:43.385Z,21.97
2022-08-20T11:38:19.469Z,22.19
2022-08-20T11:40:48.273Z,22.24
2022-08-20T11:43:17.938Z,22.22
2022-08-20T11:45:51.438Z,22.26
2022-08-20T11:48:20.141Z,22.29
2022-08-20T11:50:50.539Z,22.21
2022-08-20T11:53:20.396Z,22.46
2022-08-20T11:55:50.935Z,22.41
2022-08-20T11:58:19.576Z,22.43
2022-08-20T12:00:48.058Z,22.46
2022-08-20T12:03:17.134Z,22.59
2022-08-20T12:05:48.025Z,21.92
2022-08-20T12:08:24.987Z,22.22
2022-08-20T12:10:58.687Z,22.56
2022-08-20T12:13:30.809Z,22.68
2022-08-20T12:16:17.539Z,22.90
2022-08-20T12:18:46.293Z,23.07
2022-08-20T12:21:15.190Z,23.20
2022-08-20T12:23:45.161Z,23.36
2022-08-20T12:26:13.993Z,23.36
2022-08-20T12:28:42.427Z,23.26
2022-08-20T12:31:11.138Z,23.24
2022-08-20T12:33:39.658Z,23.31
2022-08-20T12:36:08.833Z,23.31
2022-08-20T12:38:37.420Z,23.37
2022-08-20T12:41:10.117Z,23.51
2022-08-20T12:43:38.744Z,23.59
2022-08-20T12:46:07.544Z,23.62
2022-08-20T12:48:36.081Z,23.61
2022-08-20T12:51:07.770Z,23.41
2022-08-20T12:53:36.194Z,23.33
2022-08-20T12:56:09.679Z,23.25
2022-08-20T12:58:38.163Z,23.30
2022-08-20T13:01:06.928Z,23.24
2022-08-20T13:03:44.820Z,23.17
2022-08-20T13:06:13.689Z,23.05
2022-08-20T13:08:42.340Z,23.16
2022-08-20T13:11:12.164Z,23.22
2022-08-20T13:13:40.683Z,23.27
2022-08-20T13:16:09.173Z,23.31
2022-08-20T13:18:37.595Z,23.48
2022-08-20T13:21:06.234Z,23.56
2022-08-20T13:23:34.759Z,23.57
2022-08-20T13:26:07.342Z,23.57
2022-08-20T13:28:37.322Z,23.55
2022-08-20T13:31:08.876Z,23.48
2022-08-20T13:33:37.433Z,23.37
2022-08-20T13:36:09.612Z,23.40
2022-08-20T13:38:38.137Z,23.52
2022-08-20T13:41:07.118Z,23.56
2022-08-20T13:43:37.013Z,23.56
2022-08-20T13:46:06.462Z,23.59
2022-08-20T13:48:35.039Z,23.56
2022-08-20T13:51:07.074Z,23.60
2022-08-20T13:53:35.746Z,23.71
2022-08-20T13:56:07.774Z,23.77
2022-08-20T13:58:37.734Z,23.80
2022-08-20T14:01:06.556Z,23.79
2022-08-20T14:03:35.179Z,23.96
2022-08-20T14:06:09.599Z,24.01
2022-08-20T14:08:38.468Z,24.07
2022-08-20T14:11:07.328Z,24.02
2022-08-20T14:13:42.655Z,24.17
2022-08-20T14:16:21.403Z,24.24
2022-08-20T14:18:56.375Z,24.28
2022-08-20T14:21:25.123Z,24.24
2022-08-20T14:23:53.605Z,24.33
2022-08-20T14:26:22.219Z,24.46
2022-08-20T14:28:52.091Z,24.43
2022-08-20T14:31:20.628Z,24.45
2022-08-20T14:33:51.530Z,24.51
2022-08-20T14:36:20.025Z,24.58
2022-08-20T14:38:48.521Z,24.61
2022-08-20T14:41:17.058Z,24.69
2022-08-20T14:43:45.515Z,24.55
2022-08-20T14:46:15.388Z,24.37
2022-08-20T14:48:43.850Z,24.35
2022-08-20T14:51:12.353Z,24.36
2022-08-20T14:53:40.858Z,24.30
2022-08-20T14:56:09.699Z,24.23
2022-08-20T14:58:38.176Z,24.29
2022-08-20T15:01:07.111Z,24.17
2022-08-20T15:03:37.037Z,23.96
2022-08-20T15:06:12.247Z,23.79
2022-08-20T15:08:50.736Z,23.83
2022-08-20T15:11:19.178Z,23.94
2022-08-20T15:13:47.616Z,23.91
2022-08-20T15:16:16.038Z,23.94
2022-08-20T15:18:45.975Z,23.94
2022-08-20T15:21:15.782Z,23.85
2022-08-20T15:23:46.548Z,23.72
2022-08-20T15:26:15.030Z,23.71
2022-08-20T15:28:43.561Z,23.63
2022-08-20T15:31:14.006Z,23.46
2022-08-20T15:33:43.361Z,23.40
2022-08-20T15:36:13.659Z,23.41
2022-08-20T15:38:42.099Z,23.44
2022-08-20T15:41:10.552Z,23.37
2022-08-20T15:43:39.068Z,23.36
2022-08-20T15:46:07.976Z,23.38
2022-08-20T15:48:40.867Z,23.18
2022-08-20T15:51:24.263Z,23.03
2022-08-20T15:54:00.278Z,22.96
2022-08-20T15:57:01.836Z,23.03
2022-08-20T16:00:00.287Z,22.98
2022-08-20T16:03:22.177Z,22.93
2022-08-20T16:06:00.709Z,23.02
2022-08-20T16:08:58.915Z,23.02
2022-08-20T16:11:53.436Z,22.98
2022-08-20T16:14:26.149Z,22.97
2022-08-20T16:17:02.474Z,22.85
2022-08-20T16:19:44.658Z,22.83
2022-08-20T16:22:18.441Z,22.74
2022-08-20T16:24:48.925Z,22.65
2022-08-20T16:27:34.949Z,22.59
2022-08-20T16:30:08.587Z,22.53
2022-08-20T16:32:44.601Z,22.42
2022-08-20T16:35:34.200Z,22.39
2022-08-20T16:38:20.852Z,22.38
2022-08-20T16:40:57.378Z,22.41
2022-08-20T16:43:36.444Z,22.31
2022-08-20T16:46:19.189Z,22.29
2022-08-20T16:48:57.964Z,22.11
2022-08-20T16:51:38.162Z,22.17
2022-08-20T16:54:07.389Z,22.18
2022-08-20T16:56:41.976Z,22.05
2022-08-20T16:59:24.580Z,22.08
2022-08-20T17:02:10.294Z,21.87
2022-08-20T17:04:58.516Z,21.82
2022-08-20T17:07:43.461Z,21.80
2022-08-20T17:10:21.519Z,21.74
2022-08-20T17:12:59.468Z,21.63
2022-08-20T17:15:31.598Z,21.61
2022-08-20T17:18:21.492Z,21.54
2022-08-20T17:20:50.146Z,21.43
2022-08-20T17:23:22.660Z,21.38
2022-08-20T17:26:00.494Z,21.40
2022-08-20T17:28:35.248Z,21.37
2022-08-20T17:31:07.160Z,21.30
2022-08-20T17:33:40.369Z,21.15
2022-08-20T17:36:19.777Z,21.16
2022-08-20T17:38:52.627Z,21.16
2022-08-20T17:41:26.514Z,21.09
2022-08-20T17:44:03.010Z,20.91
2022-08-20T17:46:36.973Z,20.78
2022-08-20T17:49:11.848Z,20.60
2022-08-20T17:51:51.543Z,20.33
2022-08-20T17:54:28.128Z,20.19
2022-08-20T17:57:04.440Z,20.10
2022-08-20T18:00:01.813Z,20.09
2022-08-20T18:02:30.918Z,20.09
2022-08-20T18:04:59.834Z,20.01
2022-08-20T18:07:37.513Z,19.83
2022-08-20T18:10:13.749Z,19.86
2022-08-20T18:12:53.070Z,19.83
2022-08-20T18:15:27.436Z,19.84
2022-08-20T18:18:18.658Z,19.84
2022-08-20T18:21:47.154Z,19.82
2022-08-20T18:24:24.487Z,19.83
2022-08-20T18:27:02.051Z,19.73
2022-08-20T18:29:36.018Z,19.78
2022-08-20T18:32:19.394Z,19.82
2022-08-20T18:34:48.227Z,19.79
2022-08-20T18:37:27.750Z,19.76
2022-08-20T18:40:11.439Z,19.69
2022-08-20T18:42:40.193Z,19.73
2022-08-20T18:45:10.144Z,19.70
2022-08-20T18:47:46.807Z,19.62
2022-08-20T18:50:24.924Z,19.60
2022-08-20T18:53:10.653Z,19.55
2022-08-20T18:55:42.977Z,19.55
2022-08-20T18:58:15.057Z,19.64
2022-08-20T19:00:47.175Z,19.70
2022-08-20T19:03:27.311Z,19.79
2022-08-20T19:06:26.303Z,19.76
2022-08-20T19:09:03.397Z,19.75
2022-08-20T19:12:09.957Z,19.75
2022-08-20T19:15:02.358Z,19.75
2022-08-20T19:17:49.565Z,19.72
2022-08-20T19:20:23.927Z,19.75
2022-08-20T19:22:56.485Z,19.69
2022-08-20T19:25:29.928Z,19.70
2022-08-20T19:28:00.941Z,19.71
2022-08-20T19:30:38.037Z,19.69
2022-08-20T19:33:08.398Z,19.71
2022-08-20T19:35:38.816Z,19.57
2022-08-20T19:38:09.631Z,19.48
2022-08-20T19:40:43.535Z,19.48
2022-08-20T19:43:20.289Z,19.48
2022-08-20T19:45:54.186Z,19.41
2022-08-20T19:48:56.218Z,19.40
2022-08-20T19:51:40.789Z,19.35
2022-08-20T19:54:22.549Z,19.27
2022-08-20T19:56:51.349Z,19.45
2022-08-20T19:59:22.486Z,19.33
2022-08-20T20:02:00.286Z,19.35
2022-08-20T20:04:37.207Z,19.32
2022-08-20T20:07:19.499Z,19.33
2022-08-20T20:09:56.261Z,19.29
2022-08-20T20:12:25.653Z,19.21
2022-08-20T20:14:56.179Z,19.26
2022-08-20T20:17:30.263Z,19.27
2022-08-20T20:20:24.582Z,19.28
2022-08-20T20:23:00.933Z,19.36
2022-08-20T20:25:44.582Z,19.35
2022-08-20T20:28:19.509Z,19.31
2022-08-20T20:30:49.266Z,19.26
2022-08-20T20:33:27.381Z,19.18
2022-08-20T20:36:09.288Z,19.18
2022-08-20T20:38:54.046Z,19.19
2022-08-20T20:41:28.231Z,19.13
2022-08-20T20:44:04.417Z,19.16
2022-08-20T20:46:35.761Z,19.14
2022-08-20T20:49:22.637Z,19.15
2022-08-20T20:51:59.762Z,19.11
2022-08-20T20:54:41.406Z,19.18
2022-08-20T20:57:38.764Z,19.13
2022-08-20T21:00:14.884Z,19.12
2022-08-20T21:02:43.594Z,19.11
2022-08-20T21:05:14.980Z,19.11
2022-08-20T21:07:50.128Z,19.16
2022-08-20T21:10:25.708Z,19.10
2022-08-20T21:12:56.033Z,19.03
2022-08-20T21:15:27.103Z,19.08
2022-08-20T21:17:59.258Z,19.02
2022-08-20T21:20:28.816Z,19.04
2022-08-20T21:22:58.898Z,19.01
2022-08-20T21:25:32.814Z,18.94
2022-08-20T21:28:01.700Z,18.98
2022-08-20T21:30:31.022Z,18.92
2022-08-20T21:32:59.697Z,18.96
2022-08-20T21:35:28.474Z,18.90
2022-08-20T21:37:56.914Z,18.92
2022-08-20T21:40:28.345Z,18.95
2022-08-20T21:42:58.662Z,18.91
2022-08-20T21:45:28.471Z,18.83
2022-08-20T21:47:57.479Z,18.88
2022-08-20T21:50:27.443Z,18.92
2022-08-20T21:52:59.448Z,18.87
2022-08-20T21:55:31.600Z,18.90
2022-08-20T21:58:05.138Z,18.90
2022-08-20T22:00:55.182Z,18.91
2022-08-20T22:03:27.316Z,18.95
2022-08-20T22:05:57.217Z,18.85
2022-08-20T22:08:28.309Z,18.84
2022-08-20T22:10:59.643Z,18.91
2022-08-20T22:13:33.514Z,18.88
2022-08-20T22:16:07.326Z,18.90
2022-08-20T22:18:36.657Z,18.80
2022-08-20T22:21:12.018Z,18.79
2022-08-20T22:23:40.594Z,18.82
2022-08-20T22:26:09.577Z,18.82
2022-08-20T22:28:40.259Z,18.79
2022-08-20T22:31:09.894Z,18.72
2022-08-20T22:33:40.377Z,18.70
2022-08-20T22:36:09.091Z,18.72
2022-08-20T22:38:37.812Z,18.74
2022-08-20T22:41:09.578Z,18.65
2022-08-20T22:43:55.646Z,18.69
2022-08-20T22:46:28.230Z,18.70
2022-08-20T22:48:57.638Z,18.74
2022-08-20T22:51:38.783Z,18.79
2022-08-20T22:54:12.133Z,18.79
2022-08-20T22:56:40.955Z,18.85
2022-08-20T22:59:11.151Z,18.82
2022-08-20T23:01:39.942Z,18.79
2022-08-20T23:04:15.653Z,18.79
2022-08-20T23:06:44.156Z,18.71
2022-08-20T23:09:12.907Z,18.70
2022-08-20T23:11:42.317Z,18.65
2022-08-20T23:14:12.408Z,18.60
2022-08-20T23:16:46.187Z,18.64
2022-08-20T23:19:21.422Z,18.54
2022-08-20T23:21:50.825Z,18.40
2022-08-20T23:24:20.926Z,18.37
2022-08-20T23:26:52.593Z,18.32
2022-08-20T23:29:25.531Z,18.33
2022-08-20T23:31:56.114Z,18.20
2022-08-20T23:34:24.924Z,18.19
2022-08-20T23:36:54.993Z,18.20
2022-08-20T23:39:24.960Z,18.16
2022-08-20T23:41:53.686Z,18.15
2022-08-20T23:44:25.896Z,18.07
2022-08-20T23:46:57.726Z,17.97
2022-08-20T23:49:27.428Z,18.05
2022-08-20T23:51:57.680Z,18.10
2022-08-20T23:54:26.200Z,18.01
2022-08-20T23:56:56.833Z,18.01
2022-08-20T23:59:27.360Z,17.95
